createdAt,value
2022-10-31T08:59:31.387Z,94.10
2022-10-31T09:01:58.143Z,94.34
2022-10-31T09:04:24.913Z,94.56
2022-10-31T09:07:19.727Z,94.69
2022-10-31T09:09:38.221Z,94.69
2022-10-31T09:12:32.941Z,94.46
2022-10-31T09:15:01.821Z,94.58
2022-10-31T09:17:31.942Z,95.00
2022-10-31T09:19:58.670Z,94.84
2022-10-31T09:22:27.608Z,95.25
2022-10-31T09:24:54.227Z,95.29
2022-10-31T09:27:20.747Z,95.42
2022-10-31T09:29:47.272Z,95.01
2022-10-31T09:32:13.810Z,95.36
2022-10-31T09:34:40.339Z,95.59
2022-10-31T09:37:06.827Z,95.59
2022-10-31T09:39:33.305Z,96.09
2022-10-31T09:42:10.166Z,96.17
2022-10-31T09:45:02.481Z,96.14
2022-10-31T09:47:47.837Z,96.16
2022-10-31T09:50:31.048Z,96.10
2022-10-31T09:55:53.436Z,96.43
2022-10-31T09:58:49.015Z,96.76
2022-10-31T10:04:40.505Z,96.23
2022-10-31T10:10:58.288Z,96.31
2022-10-31T10:31:23.453Z,96.21
2022-10-31T10:34:33.186Z,96.36
2022-10-31T10:40:55.697Z,96.41
2022-10-31T10:54:28.395Z,95.73
2022-10-31T11:03:43.077Z,95.38
2022-10-31T11:09:36.114Z,95.11
2022-10-31T11:12:18.319Z,94.70
2022-10-31T11:14:56.924Z,94.63
2022-10-31T11:17:31.764Z,93.89
2022-10-31T11:21:06.472Z,93.65
2022-10-31T12:36:34.357Z,90.55
2022-10-31T13:11:14.943Z,89.75
2022-10-31T13:13:53.252Z,89.81
2022-10-31T13:25:18.402Z,89.92
2022-10-31T14:01:15.941Z,90.39
2022-10-31T14:06:41.713Z,90.25
2022-10-31T14:09:21.832Z,89.56
2022-10-31T14:11:49.970Z,90.86
2022-10-31T14:14:17.699Z,89.97
2022-10-31T14:16:46.728Z,91.50
2022-10-31T14:19:20.817Z,90.33
2022-10-31T14:21:49.464Z,91.14
2022-10-31T14:24:33.471Z,90.36
2022-10-31T14:27:26.882Z,90.95
2022-10-31T14:29:53.817Z,90.32
2022-10-31T14:32:25.938Z,90.48
2022-10-31T14:34:58.577Z,90.58
2022-10-31T14:37:30.483Z,90.02
2022-10-31T14:40:13.846Z,90.37
2022-10-31T14:42:53.525Z,90.23
2022-10-31T14:45:32.141Z,90.32
2022-10-31T14:48:09.675Z,90.14
2022-10-31T14:50:50.565Z,90.02
2022-10-31T14:53:24.655Z,90.75
2022-10-31T14:55:55.122Z,91.14
2022-10-31T14:58:26.501Z,90.38
2022-10-31T15:00:57.214Z,90.98
2022-10-31T15:03:33.737Z,90.31
2022-10-31T15:06:12.115Z,90.82
2022-10-31T15:08:40.983Z,91.04
2022-10-31T15:11:13.076Z,91.52
2022-10-31T15:13:54.109Z,91.33
2022-10-31T15:16:25.357Z,91.47
2022-10-31T15:18:58.979Z,91.45
2022-10-31T15:21:29.283Z,91.48
2022-10-31T15:23:58.806Z,92.78
2022-10-31T15:26:33.591Z,91.69
2022-10-31T15:29:05.219Z,91.87
2022-10-31T15:31:32.196Z,91.37
2022-10-31T15:34:06.031Z,91.02
2022-10-31T15:36:37.420Z,91.01
2022-10-31T15:39:04.869Z,91.13
2022-10-31T15:41:54.193Z,90.85
2022-10-31T15:44:27.492Z,90.95
2022-10-31T15:46:57.133Z,91.03
2022-10-31T15:49:39.374Z,91.35
2022-10-31T15:52:18.431Z,91.24
2022-10-31T15:54:49.737Z,90.89
2022-10-31T15:57:17.646Z,91.99
2022-10-31T15:59:48.260Z,90.99
2022-10-31T16:02:20.435Z,90.66
2022-10-31T16:04:54.035Z,90.62
2022-10-31T16:07:59.537Z,90.55
2022-10-31T16:10:27.054Z,90.36
2022-10-31T16:12:56.068Z,90.17
2022-10-31T16:18:13.883Z,90.39
2022-10-31T16:20:40.450Z,90.16
2022-10-31T16:23:07.132Z,90.28
2022-10-31T16:25:39.242Z,90.13
2022-10-31T16:30:48.522Z,90.22
2022-10-31T16:33:26.144Z,90.23
2022-10-31T16:36:04.206Z,90.11
2022-10-31T16:38:36.265Z,89.96
2022-10-31T16:41:02.996Z,90.07
2022-10-31T16:43:29.546Z,90.00
2022-10-31T16:45:58.286Z,89.73
2022-10-31T16:48:24.847Z,90.23
2022-10-31T16:50:54.106Z,90.32
2022-10-31T16:53:20.892Z,90.41
2022-10-31T16:55:52.830Z,90.52
2022-10-31T16:58:23.777Z,90.45
2022-10-31T17:00:51.150Z,90.11
2022-10-31T17:03:17.838Z,90.51
2022-10-31T17:05:44.694Z,90.90
2022-10-31T17:08:11.741Z,90.87
2022-10-31T17:10:39.796Z,91.27
2022-10-31T17:13:11.760Z,91.11
2022-10-31T17:15:44.381Z,91.03
2022-10-31T17:18:17.016Z,91.31
2022-10-31T17:20:44.992Z,91.31
2022-10-31T17:23:13.446Z,91.05
2022-10-31T17:25:41.691Z,91.49
2022-10-31T17:28:12.848Z,91.21
2022-10-31T17:30:41.951Z,91.13
2022-10-31T17:33:12.950Z,91.20
2022-10-31T17:35:39.404Z,91.32
2022-10-31T17:38:05.862Z,91.61
2022-10-31T17:40:32.575Z,91.75
2022-10-31T17:43:01.732Z,91.53
2022-10-31T17:45:29.466Z,91.41
2022-10-31T17:47:56.004Z,91.53
2022-10-31T17:50:24.984Z,91.78
2022-10-31T17:52:51.856Z,91.92
2022-10-31T17:55:18.852Z,91.69
2022-10-31T17:57:46.057Z,91.96
2022-10-31T18:00:15.740Z,91.55
2022-10-31T18:02:42.679Z,92.00
2022-10-31T18:05:11.076Z,91.65
2022-10-31T18:07:41.846Z,92.05
2022-10-31T18:10:09.980Z,92.20
2022-10-31T18:12:38.834Z,91.85
2022-10-31T18:15:05.952Z,92.20
2022-10-31T18:17:32.728Z,92.09
2022-10-31T18:19:59.571Z,92.21
2022-10-31T18:22:26.048Z,92.09
2022-10-31T19:04:27.299Z,91.95
